Latest METARs, TAFs and NOTAMs for LSGG


---------------------------------------------------------------------------
	(OBSERVATIONS)
LSGG 261050Z VRB04KT CAVOK 16/05 Q1035 NOSIG=
LSGG 261020Z VRB03KT CAVOK 15/05 Q1035 NOSIG=
LSGG 260950Z VRB03KT CAVOK 14/06 Q1036 NOSIG=
LSGG 260920Z VRB03KT CAVOK 14/05 Q1036 NOSIG=
LSGG 260850Z VRB03KT CAVOK 13/05 Q1036 NOSIG=
LSGG 260820Z 10005KT 060V170 CAVOK 12/06 Q1036 NOSIG=
---------------------------------------------------------------------------
	(FC)
Sorry, FC For LSGG Not Found
---------------------------------------------------------------------------
	(TERMINAL AREA FORECAST)
LSGG 260825Z 2609/2715 04007KT CAVOK TX20/2615Z TN06/2706Z
    TX22/2715Z
    BECMG 2617/2619 VRB03KT
    BECMG 2709/2711 04007KT=
---------------------------------------------------------------------------
	(NOTAMS)


LSGG A0362/18 TRIGGER NOTAM - AIRAC AIP SUP 013/18: AOC TYPE
    A RWY 22 LSGG AD 2.24.4-3 SUSPENDED BY SUP. LSGG AD 2-6,
    AD 2.10 AND AOC 22 (1)-(5) SUSPENDED BY SUP. 13 SEP 00:00
    2018 UNTIL 27 SEP 23:59 2018. CREATED: 02 AUG 07:00 2018

LSGG A0363/18 TRIGGER NOTAM - AIRAC AIP SUP 012/18: GRASS RWY
    04/22 CLSD. 13 SEP 00:00 2018 UNTIL 27 SEP 23:59 2018. CREATED:
    02 AUG 07:00 2018

LSGG A0364/18 TRIGGER NOTAM - PERM AIRAC AMDT 008/18: RWY 05/23
    DESIGNATOR CHANGED TO RWY 04/22. MAG VAR, ILS AND FLT PROC
    AMD. ADC, ACFT PRKG/DCKG CHARTS AND AOC CHANGED. SID/STAR
    AND IAP CHANGED. 13 SEP 00:00 2018 UNTIL 27 SEP 23:59 2018.
    CREATED: 02 AUG 07:00 2018

LSGG A0365/18 TRIGGER NOTAM - PERM AIRAC AMDT 008/18: GENEVA
    DVOR/DME GVA 115.750, PASSEIRY DVOR/DME PAS 116.600 AND ST-PREX
    VOR/DME SPR 113.900 MAG PSN AND THR REFERENCES CHANGED. 13
    SEP 00:00 2018 UNTIL 27 SEP 23:59 2018. CREATED: 02 AUG 07:00
    2018

LSGG A0400/18 TWY A CLSD BTN TWY B AND HOLDING BAY A DUE TO WIP.
    SUN-THU 2030-0330, 02 SEP 20:30 2018 UNTIL 12 OCT 03:30 2018.
    CREATED: 27 AUG 07:14 2018

LSGG A0482/18 GENEVA TWR 119.700 AND 119.900 ON MAINT, CTC GENEVA
    TWR 118.700 INSTEAD. GENEVA TRANSIT 136.450 AND GENEVA FINAL
    120.300 ON MAINT, CTC GENEVA ARR 136.250 INSTEAD. 27 SEP
    21:00 2018 UNTIL 28 SEP 03:00 2018. CREATED: 17 SEP 07:14
    2018

LSGG A0490/18 REP TO ATC IF UNA TO FLY THE ASSIGNED FRI STAR.
    01 0700-1400 02 0600-1300, 01 OCT 07:00 2018 UNTIL 02 OCT
    13:00 2018. CREATED: 18 SEP 07:49 2018

LSGG A0491/18 FRIBOURG VOR/DME FRI 110.850 U/S DUE TO MAINT.
    01 0700-1400 02 0600-1300, 01 OCT 07:00 2018 UNTIL 02 OCT
    13:00 2018. CREATED: 18 SEP 07:49 2018

LSGG A0493/18 RWY 04/22 CLSD AFT LAST SKED TFC DUE TO WIP. NO
    EVACUATION POSS. AD NOT TO BE PLANNED AS ALTN. SUN-THU 2200-0359,
    23 SEP 22:00 2018 UNTIL 12 OCT 03:59 2018. CREATED: 19 SEP
    06:41 2018

LSGG A0497/18 RWY 04 ILS INE 110.900 AND RWY 22 ILS ISW 109.900
    U/S DUE TO MAINT. AVBL O/R WI 15 MIN. 11 OCT 21:30 2018 UNTIL
    12 OCT 01:00 2018. CREATED: 25 SEP 06:09 2018

LSGG A0498/18 ST PREX VOR/DME SPR 113.900 U/S DUE TO MAINT. IF
    UNA TO FLY ASSIGNED SID/STAR, REP IT TO GND (SID) OR ATC
    (STAR). IN CASE OF MISSED APCH RWY 22, INITIAL CLIMB CLR
    7000FT. CLIMB ON TR 224 DEG. EXP RADAR VECTORING BY ATC.
    IN CASE OF MISSED APCH RWY 04, INITIAL CLIMB CLR 7000FT.
    CLIMB ON TR 044 DEG. EXP RADAR VECTORING BY ATC. 11 OCT 07:00
    2018 UNTIL 11 OCT 12:00 2018. CREATED: 25 SEP 08:05 2018

LSGG A0499/18 GENEVA DVOR/DME GVA 115.750 U/S DUE TO MAINT. IF
    UNA TO FLY ASSIGNED SID/STAR, REP IT TO GND (SID) OR ATC
    (STAR). IN CASE OF MISSED APCH RWY 22, INITIAL CLIMB CLR
    7000FT. CLIMB ON TR 224 DEG. EXP RADAR VECTORING BY ATC.
    IN CASE OF MISSED APCH RWY 04, INITIAL CLIMB CLR 7000FT.
    CLIMB ON TR 044 DEG. EXP RADAR VECTORING BY ATC. 15 0600-1000
    2130-16 0100, 15 OCT 06:00 2018 UNTIL 16 OCT 01:00 2018.
    CREATED: 25 SEP 08:07 2018

LSGG A0505/18 ATIS 135.575 AND D-ATIS U/S DUE TO MAINT. DO NOT
    USE. 02 OCT 21:30 2018 UNTIL 03 OCT 03:00 2018. CREATED:
    26 SEP 06:12 2018

LSGG B0777/18 ACFT AND HEL USING LSGG VFR RTE W, NW OR N MUST
    ACT THEIR TRANSPONDERS (MODE A/C/S) AS FLW: 1)TIL MID-DOWNWIND
    FOR LSGG ARR. 2)WI CTR FOR TRANSITS. ATC MAY INSTRUCT PILOT
    TO SWITCH OFF TRANSPONDER AT ANY TIME. 03 JUL 10:34 2018
    UNTIL 31 OCT 22:00 2018. CREATED: 03 JUL 10:34 2018

LSGG B1148/18 GENEVA GLD ATIS 124.750 U/S DUE TO MAINT. DO NOT
    USE. 02 OCT 21:30 2018 UNTIL 03 OCT 03:00 2018. CREATED:
    26 SEP 06:15 2018

---------------------------------------------------------------------------